Aviation Digital Data Service (ADDS)

Output produced by METARs form (0928 UTC 19 November 2018)
found at http://www.aviationweather.gov/metar/data/
 
RJOH 190900Z 01008KT 340V040 9999 -SHRA FEW020 BKN030 BKN050 13/04 Q1019
TAF RJOH 190506Z 1906/2012 35007KT 9999 FEW025 BKN050 
     BECMG 1914/1916 20005KT 
     BECMG 2000/2003 29010KT 
     BECMG 2009/2012 18005KT